createdAt,value
2019-05-06T00:02:24.554Z,15.71
2019-05-06T00:04:57.063Z,15.72
2019-05-06T00:07:29.477Z,15.80
2019-05-06T00:10:01.574Z,15.77
2019-05-06T00:12:33.970Z,15.74
2019-05-06T00:15:06.928Z,15.75
2019-05-06T00:17:39.036Z,15.71
2019-05-06T00:20:11.125Z,15.70
2019-05-06T00:22:43.613Z,15.77
2019-05-06T00:25:19.937Z,15.78
2019-05-06T00:28:17.919Z,15.78
2019-05-06T00:30:51.842Z,15.82
2019-05-06T00:33:24.260Z,15.78
2019-05-06T00:35:56.487Z,15.70
2019-05-06T00:38:28.517Z,15.62
2019-05-06T00:41:04.147Z,15.57
2019-05-06T00:43:36.135Z,15.53
2019-05-06T00:46:08.119Z,15.58
2019-05-06T00:48:40.115Z,15.54
2019-05-06T00:51:13.547Z,15.42
2019-05-06T00:53:50.257Z,15.48
2019-05-06T00:56:24.238Z,15.48
2019-05-06T00:58:55.887Z,15.54
2019-05-06T01:01:29.798Z,15.51
2019-05-06T01:04:01.400Z,15.59
2019-05-06T01:06:34.999Z,15.62
2019-05-06T01:09:10.755Z,15.65
2019-05-06T01:11:44.915Z,15.59
2019-05-06T01:14:23.514Z,15.63
2019-05-06T01:16:55.626Z,15.66
2019-05-06T01:19:28.638Z,15.61
2019-05-06T01:22:00.547Z,15.48
2019-05-06T01:24:35.515Z,15.49
2019-05-06T01:27:07.424Z,15.57
2019-05-06T01:29:39.413Z,15.48
2019-05-06T01:32:11.455Z,15.53
2019-05-06T01:34:44.646Z,15.54
2019-05-06T01:37:16.722Z,15.55
2019-05-06T01:40:07.824Z,15.59
2019-05-06T01:43:05.120Z,15.66
2019-05-06T01:45:38.824Z,15.59
2019-05-06T01:48:11.056Z,15.53
2019-05-06T01:50:44.519Z,15.59
2019-05-06T01:53:16.878Z,15.46
2019-05-06T01:55:48.799Z,15.52
2019-05-06T01:58:20.697Z,15.65
2019-05-06T02:00:54.462Z,15.67
2019-05-06T02:03:26.348Z,15.70
2019-05-06T02:05:59.928Z,15.71
2019-05-06T02:08:33.584Z,15.70
2019-05-06T02:11:05.708Z,15.72
2019-05-06T02:13:38.117Z,15.70
2019-05-06T02:16:10.023Z,15.70
2019-05-06T02:18:41.879Z,15.70
2019-05-06T02:21:19.880Z,15.66
2019-05-06T02:23:57.288Z,15.64
2019-05-06T02:26:29.232Z,15.71
2019-05-06T02:29:04.270Z,15.63
2019-05-06T02:31:49.260Z,15.60
2019-05-06T02:34:40.049Z,15.60
2019-05-06T02:37:16.537Z,15.37
2019-05-06T02:39:48.499Z,15.46
2019-05-06T02:42:20.415Z,15.50
2019-05-06T02:44:53.969Z,15.53
2019-05-06T02:47:45.393Z,15.58
2019-05-06T02:50:20.336Z,15.51
2019-05-06T02:52:53.762Z,15.56
2019-05-06T02:55:25.833Z,15.62
2019-05-06T02:57:57.721Z,15.62
2019-05-06T03:00:29.651Z,15.41
2019-05-06T03:03:02.898Z,15.40
2019-05-06T03:05:35.880Z,15.39
2019-05-06T03:08:07.856Z,15.36
2019-05-06T03:10:39.896Z,15.28
2019-05-06T03:13:14.274Z,15.22
2019-05-06T03:15:47.636Z,15.19
2019-05-06T03:18:19.541Z,15.19
2019-05-06T03:21:13.793Z,15.27
2019-05-06T03:23:53.957Z,15.33
2019-05-06T03:26:24.371Z,15.40
2019-05-06T03:28:56.430Z,15.40
2019-05-06T03:31:28.381Z,15.34
2019-05-06T03:34:29.036Z,15.25
2019-05-06T03:36:40.445Z,15.17
2019-05-06T03:39:07.823Z,15.15
2019-05-06T03:41:42.905Z,15.18
2019-05-06T03:44:16.851Z,15.17
2019-05-06T03:47:06.379Z,15.18
2019-05-06T03:49:43.001Z,15.23
2019-05-06T03:52:15.332Z,15.29
2019-05-06T03:54:48.144Z,15.30
2019-05-06T03:57:23.226Z,15.33
2019-05-06T03:59:55.741Z,15.28
2019-05-06T04:02:28.210Z,15.28
2019-05-06T04:05:00.144Z,15.37
2019-05-06T04:07:34.609Z,15.36
2019-05-06T04:10:07.351Z,15.33
2019-05-06T04:12:39.567Z,15.42
2019-05-06T04:15:14.201Z,15.44
2019-05-06T04:17:53.973Z,15.47
2019-05-06T04:20:43.872Z,15.42
2019-05-06T04:23:46.072Z,15.40
2019-05-06T04:26:28.410Z,15.32
2019-05-06T04:29:00.290Z,15.40
2019-05-06T04:31:33.549Z,15.40
2019-05-06T04:34:14.106Z,15.44
2019-05-06T04:36:39.741Z,15.45
2019-05-06T04:39:13.109Z,15.47
2019-05-06T04:41:45.662Z,15.49
2019-05-06T04:44:18.992Z,15.40
2019-05-06T04:46:54.399Z,15.38
2019-05-06T04:49:26.228Z,15.36
2019-05-06T04:51:58.612Z,15.39
2019-05-06T04:54:33.688Z,15.39
2019-05-06T04:57:05.261Z,15.37
2019-05-06T04:59:37.282Z,15.34
2019-05-06T05:02:09.550Z,15.29
2019-05-06T05:04:43.330Z,15.38
2019-05-06T05:07:15.588Z,15.35
2019-05-06T05:09:48.301Z,15.32
2019-05-06T05:12:27.031Z,15.34
2019-05-06T05:15:25.140Z,15.36
2019-05-06T05:21:32.486Z,15.39
2019-05-06T05:24:05.003Z,15.35
2019-05-06T05:26:37.884Z,15.28
2019-05-06T05:29:12.201Z,15.27
2019-05-06T05:31:43.783Z,15.32
2019-05-06T05:34:16.176Z,15.33
2019-05-06T05:36:48.493Z,15.34
2019-05-06T05:39:22.249Z,15.37
2019-05-06T05:41:55.685Z,15.32
2019-05-06T05:44:32.385Z,15.15
2019-05-06T05:47:05.606Z,15.20
2019-05-06T05:50:03.844Z,15.19
2019-05-06T05:52:35.840Z,15.20
2019-05-06T05:55:12.159Z,15.17
2019-05-06T05:57:44.648Z,15.11
2019-05-06T06:00:17.544Z,15.13
2019-05-06T06:02:52.857Z,15.14
2019-05-06T06:05:23.419Z,15.23
2019-05-06T06:07:55.450Z,15.30
2019-05-06T06:10:48.709Z,15.40
2019-05-06T06:13:32.034Z,15.43
2019-05-06T06:19:42.483Z,15.49
2019-05-06T06:22:23.426Z,15.56
2019-05-06T06:25:04.082Z,15.47
2019-05-06T06:28:12.070Z,15.27
2019-05-06T06:30:54.576Z,15.23
2019-05-06T06:33:26.737Z,15.39
2019-05-06T06:36:23.083Z,15.29
2019-05-06T06:38:58.911Z,15.39
2019-05-06T06:41:32.324Z,15.33
2019-05-06T06:44:07.922Z,15.53
2019-05-06T06:46:39.921Z,15.49
2019-05-06T06:49:14.098Z,15.53
2019-05-06T06:51:46.219Z,15.43
2019-05-06T06:54:18.253Z,15.46
2019-05-06T06:57:08.798Z,15.51
2019-05-06T06:59:59.072Z,15.62
2019-05-06T07:02:56.196Z,15.75
2019-05-06T07:05:37.796Z,15.90
2019-05-06T07:08:09.883Z,15.95
2019-05-06T07:10:44.740Z,16.05
2019-05-06T07:13:20.107Z,15.99
2019-05-06T07:15:52.173Z,16.21
2019-05-06T07:18:24.445Z,16.19
2019-05-06T07:21:22.464Z,16.37
2019-05-06T07:23:54.698Z,16.51
2019-05-06T07:26:31.792Z,16.53
2019-05-06T07:29:15.325Z,16.68
2019-05-06T07:31:39.265Z,16.53
2019-05-06T07:34:12.064Z,16.89
2019-05-06T07:36:44.006Z,16.89
2019-05-06T07:39:15.989Z,17.02
2019-05-06T07:41:53.454Z,17.07
2019-05-06T07:44:43.585Z,17.07
2019-05-06T07:47:29.098Z,17.13
2019-05-06T07:50:02.383Z,16.85
2019-05-06T07:52:34.781Z,17.41
2019-05-06T07:55:07.086Z,17.46
2019-05-06T07:57:39.091Z,17.75
2019-05-06T08:00:12.564Z,17.73
2019-05-06T08:02:46.349Z,17.91
2019-05-06T08:05:18.231Z,17.82
2019-05-06T08:07:55.070Z,17.85
2019-05-06T08:10:25.267Z,17.79
2019-05-06T08:12:58.308Z,17.71
2019-05-06T08:15:32.301Z,17.77
2019-05-06T08:18:03.939Z,17.79
2019-05-06T08:20:37.025Z,17.72
2019-05-06T08:23:22.112Z,17.74
2019-05-06T08:26:08.319Z,17.70
2019-05-06T08:28:38.626Z,17.89
2019-05-06T08:31:06.844Z,17.81
2019-05-06T08:33:38.798Z,17.93
2019-05-06T08:36:15.093Z,17.62
2019-05-06T08:38:56.487Z,17.57
2019-05-06T08:41:29.034Z,17.82
2019-05-06T08:44:02.708Z,18.17
2019-05-06T08:46:35.885Z,18.06
2019-05-06T08:49:07.820Z,18.46
2019-05-06T08:51:48.546Z,18.74
2019-05-06T08:54:35.709Z,18.76
2019-05-06T08:57:07.713Z,19.05
2019-05-06T08:59:42.317Z,18.95
2019-05-06T09:02:13.848Z,19.02
2019-05-06T09:04:45.984Z,19.05
2019-05-06T09:07:18.077Z,19.27
2019-05-06T09:09:50.156Z,19.03
2019-05-06T09:12:22.447Z,19.25
2019-05-06T09:14:56.274Z,19.49
2019-05-06T09:17:28.665Z,19.70
2019-05-06T09:20:02.738Z,20.06
2019-05-06T09:22:34.546Z,20.21
2019-05-06T09:25:07.446Z,20.71
2019-05-06T09:28:12.996Z,21.05
2019-05-06T09:30:48.111Z,21.44
2019-05-06T09:33:24.809Z,21.43
2019-05-06T09:35:56.934Z,21.48
2019-05-06T09:38:28.993Z,21.43
2019-05-06T09:41:05.014Z,20.90
2019-05-06T09:43:36.620Z,20.10
2019-05-06T09:46:08.522Z,19.57
2019-05-06T09:48:58.242Z,19.80
2019-05-06T09:51:32.584Z,19.81
2019-05-06T09:54:13.044Z,20.21
2019-05-06T09:56:49.716Z,20.77
2019-05-06T09:59:22.854Z,21.09
2019-05-06T10:01:54.959Z,21.35
2019-05-06T10:04:27.903Z,22.23
2019-05-06T10:07:00.208Z,22.54
2019-05-06T10:09:33.725Z,23.22
2019-05-06T10:12:06.067Z,24.09
2019-05-06T10:14:38.576Z,24.65
2019-05-06T10:17:13.248Z,23.87
2019-05-06T10:19:45.312Z,24.20
2019-05-06T10:22:17.407Z,24.45
2019-05-06T10:24:49.289Z,24.04
2019-05-06T10:27:22.738Z,23.86
2019-05-06T10:30:03.268Z,23.44
2019-05-06T10:32:43.561Z,23.67
2019-05-06T10:35:16.051Z,23.97
2019-05-06T10:38:15.203Z,24.04
2019-05-06T10:41:01.003Z,24.34
2019-05-06T10:44:03.043Z,23.79
2019-05-06T10:46:34.829Z,24.12
2019-05-06T10:49:07.594Z,23.93
2019-05-06T10:51:54.545Z,24.30
2019-05-06T10:54:26.518Z,23.61
2019-05-06T10:57:13.836Z,22.95
2019-05-06T10:59:47.674Z,23.16
2019-05-06T11:02:38.741Z,23.10
2019-05-06T11:05:10.899Z,24.10
2019-05-06T11:07:43.390Z,23.62
2019-05-06T11:10:25.011Z,23.53
2019-05-06T11:12:52.317Z,24.10
2019-05-06T11:15:24.610Z,24.41
2019-05-06T11:17:56.589Z,25.38
2019-05-06T11:20:28.587Z,25.68
2019-05-06T11:23:03.317Z,24.27
2019-05-06T11:25:37.725Z,27.75
2019-05-06T11:28:26.668Z,29.09
2019-05-06T11:31:30.192Z,30.04
2019-05-06T11:34:28.353Z,31.43
2019-05-06T11:37:45.938Z,30.78
2019-05-06T11:40:09.422Z,29.57
2019-05-06T11:42:43.655Z,26.87
2019-05-06T11:45:15.403Z,27.28
2019-05-06T11:47:48.510Z,26.90
2019-05-06T11:50:21.971Z,26.63
2019-05-06T11:52:55.925Z,25.33
2019-05-06T11:55:32.734Z,25.38
2019-05-06T11:58:03.391Z,25.65
2019-05-06T12:00:39.422Z,24.37
2019-05-06T12:03:12.772Z,24.45
2019-05-06T12:05:44.958Z,23.80
2019-05-06T12:08:22.071Z,24.28
2019-05-06T12:10:53.428Z,24.04
2019-05-06T12:13:26.994Z,23.77
2019-05-06T12:15:59.276Z,23.63
2019-05-06T12:18:31.211Z,23.63
2019-05-06T12:21:11.117Z,23.57
2019-05-06T12:23:37.141Z,23.08
2019-05-06T12:26:09.022Z,22.50
2019-05-06T12:28:43.541Z,22.51
2019-05-06T12:31:15.846Z,22.95
2019-05-06T12:33:53.288Z,22.63
2019-05-06T12:36:25.024Z,22.79
2019-05-06T12:39:17.100Z,23.24
2019-05-06T12:42:15.806Z,23.34
2019-05-06T12:45:05.147Z,23.30
2019-05-06T12:47:45.449Z,22.82
2019-05-06T12:50:22.653Z,22.20
2019-05-06T12:52:57.564Z,21.90
2019-05-06T12:55:28.100Z,22.01
2019-05-06T12:58:02.787Z,21.89
2019-05-06T13:00:34.851Z,22.22
2019-05-06T13:03:09.526Z,22.59
2019-05-06T13:05:42.800Z,22.61
2019-05-06T13:08:20.142Z,22.37
2019-05-06T13:10:52.594Z,22.04
2019-05-06T13:13:25.011Z,22.10
2019-05-06T13:15:57.799Z,22.35
2019-05-06T13:18:29.688Z,22.24
2019-05-06T13:21:06.437Z,21.69
2019-05-06T13:23:46.387Z,21.58
2019-05-06T13:26:18.272Z,22.15
2019-05-06T13:28:54.698Z,22.39
2019-05-06T13:31:26.601Z,22.01
2019-05-06T13:34:05.288Z,22.32
2019-05-06T13:36:37.359Z,22.59
2019-05-06T13:39:14.365Z,22.69
2019-05-06T13:41:45.269Z,22.14
2019-05-06T13:44:18.629Z,22.10
2019-05-06T13:46:54.171Z,22.33
2019-05-06T13:49:48.255Z,22.92
2019-05-06T13:52:25.265Z,22.72
2019-05-06T13:54:57.298Z,22.87
2019-05-06T13:57:29.396Z,23.24
2019-05-06T14:00:03.254Z,23.36
2019-05-06T14:02:45.884Z,23.32
2019-05-06T14:05:18.557Z,22.95
2019-05-06T14:07:52.774Z,23.38
2019-05-06T14:10:24.201Z,23.56
2019-05-06T14:12:56.603Z,23.63
2019-05-06T14:15:28.633Z,23.44
2019-05-06T14:18:02.653Z,23.89
2019-05-06T14:20:34.201Z,23.74
2019-05-06T14:23:06.093Z,24.04
2019-05-06T14:25:55.633Z,24.49
2019-05-06T14:28:48.375Z,24.56
2019-05-06T14:31:27.050Z,24.43
2019-05-06T14:34:01.674Z,24.19
2019-05-06T14:36:33.708Z,23.96
2019-05-06T14:39:08.730Z,24.16
2019-05-06T14:41:44.514Z,23.75
2019-05-06T14:44:16.637Z,23.73
2019-05-06T14:47:19.781Z,23.64
2019-05-06T14:49:52.946Z,23.82
2019-05-06T14:52:25.434Z,23.81
2019-05-06T14:55:07.365Z,24.32
2019-05-06T14:57:42.692Z,24.83
2019-05-06T15:00:16.655Z,24.48
2019-05-06T15:02:48.625Z,24.61
2019-05-06T15:05:22.640Z,24.47
2019-05-06T15:07:54.327Z,24.39
2019-05-06T15:10:26.632Z,23.85
2019-05-06T15:12:58.556Z,23.75
2019-05-06T15:15:32.416Z,23.63
2019-05-06T15:18:06.470Z,23.23
2019-05-06T15:20:42.496Z,22.99
2019-05-06T15:23:15.026Z,23.10
2019-05-06T15:25:46.995Z,23.00
2019-05-06T15:28:18.875Z,22.95
2019-05-06T15:31:03.299Z,22.84
2019-05-06T15:33:40.548Z,22.81
2019-05-06T15:36:27.347Z,22.91
2019-05-06T15:38:59.332Z,22.75
2019-05-06T15:41:32.307Z,22.35
2019-05-06T15:44:05.510Z,22.28
2019-05-06T15:46:39.496Z,21.96
2019-05-06T15:49:15.555Z,21.79
2019-05-06T15:51:49.393Z,21.75
2019-05-06T15:54:22.662Z,21.87
2019-05-06T15:56:56.668Z,22.00
2019-05-06T15:59:28.612Z,21.76
2019-05-06T16:02:01.900Z,21.69
2019-05-06T16:04:35.711Z,21.86
2019-05-06T16:07:07.762Z,21.72
2019-05-06T16:09:39.775Z,21.67
2019-05-06T16:12:17.041Z,21.50
2019-05-06T16:14:48.935Z,21.90
2019-05-06T16:17:23.579Z,22.08
2019-05-06T16:19:55.884Z,22.26
2019-05-06T16:22:27.746Z,21.78
2019-05-06T16:25:06.144Z,21.96
2019-05-06T16:27:43.814Z,21.84
2019-05-06T16:30:16.395Z,21.62
2019-05-06T16:32:48.321Z,21.57
2019-05-06T16:35:22.455Z,21.66
2019-05-06T16:37:54.050Z,21.63
2019-05-06T16:40:26.129Z,21.72
2019-05-06T16:42:58.024Z,21.72
2019-05-06T16:45:30.271Z,21.68
2019-05-06T16:48:03.622Z,21.29
2019-05-06T16:50:39.577Z,21.32
2019-05-06T16:53:12.193Z,21.17
2019-05-06T16:55:59.009Z,21.09
2019-05-06T16:58:36.358Z,21.25
2019-05-06T17:01:14.890Z,20.85
2019-05-06T17:04:14.592Z,20.93
2019-05-06T17:06:47.357Z,20.92
2019-05-06T17:09:26.929Z,21.06
2019-05-06T17:11:59.445Z,20.98
2019-05-06T17:14:34.376Z,20.99
2019-05-06T17:17:07.271Z,21.02
2019-05-06T17:19:43.467Z,21.32
2019-05-06T17:22:15.373Z,20.98
2019-05-06T17:24:48.638Z,20.84
2019-05-06T17:27:23.559Z,20.60
2019-05-06T17:30:17.515Z,20.48
2019-05-06T17:32:52.642Z,20.44
2019-05-06T17:35:25.345Z,20.04
2019-05-06T17:38:13.117Z,19.79
2019-05-06T17:40:46.318Z,19.65
2019-05-06T17:43:22.523Z,19.66
2019-05-06T17:46:02.868Z,19.31
2019-05-06T17:48:46.035Z,18.89
2019-05-06T17:51:36.984Z,19.20
2019-05-06T17:54:12.320Z,19.09
2019-05-06T17:56:44.602Z,19.08
2019-05-06T17:59:16.511Z,19.29
2019-05-06T18:01:53.042Z,19.48
2019-05-06T18:04:24.365Z,19.87
2019-05-06T18:06:56.948Z,19.95
2019-05-06T18:09:29.355Z,19.72
2019-05-06T18:12:03.152Z,19.75
2019-05-06T18:14:35.191Z,19.49
2019-05-06T18:17:07.326Z,19.46
2019-05-06T18:19:39.294Z,19.04
2019-05-06T18:22:13.114Z,19.10
2019-05-06T18:24:48.062Z,19.14
2019-05-06T18:27:22.611Z,18.96
2019-05-06T18:29:55.109Z,18.96
2019-05-06T18:32:27.082Z,18.58
2019-05-06T18:34:59.159Z,18.52
2019-05-06T18:37:33.168Z,18.55
2019-05-06T18:40:06.979Z,18.42
2019-05-06T18:42:42.987Z,18.10
2019-05-06T18:45:14.780Z,18.03
2019-05-06T18:47:46.799Z,18.02
2019-05-06T18:50:18.777Z,18.08
2019-05-06T18:52:52.835Z,18.01
2019-05-06T18:55:25.991Z,17.91
2019-05-06T18:58:02.080Z,17.79
2019-05-06T19:00:34.852Z,17.84
2019-05-06T19:03:06.848Z,17.66
2019-05-06T19:05:39.672Z,17.66
2019-05-06T19:08:36.698Z,17.54
2019-05-06T19:11:11.961Z,17.48
2019-05-06T19:13:44.022Z,17.53
2019-05-06T19:16:16.396Z,17.41
2019-05-06T19:18:52.167Z,17.35
2019-05-06T19:21:24.499Z,17.33
2019-05-06T19:23:57.549Z,17.27
2019-05-06T19:26:29.472Z,17.26
2019-05-06T19:29:04.618Z,17.10
2019-05-06T19:31:36.759Z,16.89
2019-05-06T19:34:09.523Z,16.72
2019-05-06T19:36:42.198Z,16.66
2019-05-06T19:39:16.729Z,16.60
2019-05-06T19:41:48.621Z,16.54
2019-05-06T19:44:22.052Z,16.54
2019-05-06T19:46:54.351Z,16.50
2019-05-06T19:49:26.716Z,16.45
2019-05-06T19:52:00.041Z,16.31
2019-05-06T19:54:34.334Z,16.25
2019-05-06T19:57:06.469Z,16.16
2019-05-06T19:59:42.369Z,16.13
2019-05-06T20:02:14.186Z,16.09
2019-05-06T20:04:48.510Z,16.19
2019-05-06T20:07:48.611Z,16.23
2019-05-06T20:10:42.376Z,16.32
2019-05-06T20:13:15.845Z,16.38
2019-05-06T20:15:47.764Z,16.45
2019-05-06T20:18:19.753Z,16.51
2019-05-06T20:20:52.791Z,16.52
2019-05-06T20:23:25.415Z,16.51
2019-05-06T20:25:59.879Z,16.52
2019-05-06T20:28:33.586Z,16.51
2019-05-06T20:31:07.326Z,16.55
2019-05-06T20:33:42.148Z,16.58
2019-05-06T20:36:13.906Z,16.62
2019-05-06T20:38:50.246Z,16.55
2019-05-06T20:41:25.770Z,16.72
2019-05-06T20:43:57.731Z,16.77
2019-05-06T20:46:29.666Z,16.73
2019-05-06T20:49:02.581Z,16.76
2019-05-06T20:51:36.140Z,16.84
2019-05-06T20:54:08.160Z,16.75
2019-05-06T20:56:44.777Z,16.70
2019-05-06T20:59:16.662Z,16.63
2019-05-06T21:01:48.626Z,16.64
2019-05-06T21:04:22.673Z,16.65
2019-05-06T21:06:55.448Z,16.58
2019-05-06T21:09:27.479Z,16.61
2019-05-06T21:11:59.454Z,16.52
2019-05-06T21:14:32.389Z,16.49
2019-05-06T21:17:06.158Z,16.52
2019-05-06T21:19:39.965Z,16.60
2019-05-06T21:22:13.278Z,16.53
2019-05-06T21:24:48.206Z,16.53
2019-05-06T21:27:22.991Z,16.61
2019-05-06T21:29:55.515Z,16.65
2019-05-06T21:32:32.977Z,16.62
2019-05-06T21:35:07.878Z,16.59
2019-05-06T21:37:42.080Z,16.53
2019-05-06T21:40:15.791Z,16.52
2019-05-06T21:42:47.717Z,16.49
2019-05-06T21:45:22.912Z,16.55
2019-05-06T21:47:55.342Z,16.58
2019-05-06T21:50:27.441Z,16.54
2019-05-06T21:53:02.735Z,16.62
2019-05-06T21:55:37.210Z,16.63
2019-05-06T21:58:09.423Z,16.64
2019-05-06T22:01:02.352Z,16.65
2019-05-06T22:03:45.458Z,16.57
2019-05-06T22:06:17.522Z,16.59
2019-05-06T22:08:52.067Z,16.55
2019-05-06T22:11:24.545Z,16.50
2019-05-06T22:14:01.152Z,16.44
2019-05-06T22:16:32.320Z,16.31
2019-05-06T22:19:08.477Z,16.41
2019-05-06T22:22:03.495Z,16.45
2019-05-06T22:24:43.752Z,16.40
2019-05-06T22:27:16.537Z,16.40
2019-05-06T22:29:48.856Z,16.42
2019-05-06T22:32:22.940Z,16.44
2019-05-06T22:34:54.787Z,16.32
2019-05-06T22:37:26.780Z,16.27
2019-05-06T22:40:02.217Z,16.37
2019-05-06T22:42:35.490Z,16.41
2019-05-06T22:45:07.962Z,16.32
2019-05-06T22:47:41.956Z,16.21
2019-05-06T22:50:14.153Z,16.31
2019-05-06T22:52:52.873Z,16.40
2019-05-06T22:55:25.534Z,16.42
2019-05-06T22:57:58.851Z,16.47
2019-05-06T23:00:33.524Z,16.41
2019-05-06T23:03:09.606Z,16.34
2019-05-06T23:05:42.332Z,16.36
2019-05-06T23:08:20.209Z,16.37
2019-05-06T23:10:52.912Z,16.38
2019-05-06T23:13:27.260Z,16.31
2019-05-06T23:15:59.402Z,16.35
2019-05-06T23:18:34.251Z,16.37
2019-05-06T23:21:06.305Z,16.38
2019-05-06T23:23:48.308Z,16.45
2019-05-06T23:26:22.858Z,16.41
2019-05-06T23:28:56.665Z,16.29
2019-05-06T23:31:28.538Z,16.32
2019-05-06T23:34:04.958Z,16.29
2019-05-06T23:37:23.120Z,16.36
2019-05-06T23:40:42.512Z,16.15
2019-05-06T23:43:50.240Z,16.29
2019-05-06T23:46:57.754Z,16.29
2019-05-06T23:50:06.302Z,16.22
2019-05-06T23:53:13.455Z,16.33
2019-05-06T23:56:20.890Z,16.25
2019-05-06T23:58:52.824Z,16.24
